Time;durP1;ratioP1;P1;durP2;ratioP2;P2;SDS_P1;SDS_P2;PMS_P1;PMS_P2;Temp;Humidity;BMP_temperature;BMP_pressure;BME280_temperature;BME280_humidity;BME280_pressure;Samples;Min_cycle;Max_cycle;Signal;HPM_P1;HPM_P2
2023/12/25 00:01:04;;;;;;;2.40;1.13;;;;;;;10.43;100.00;99833.97;5023502;28;20637;-73
2023/12/25 00:03:31;;;;;;;1.70;0.73;;;;;;;10.44;100.00;99836.63;5024053;23;20219;-70
2023/12/25 00:06:10;;;;;;;2.10;0.83;;;;;;;10.39;100.00;99830.38;5003579;28;20747;-67
2023/12/25 00:08:36;;;;;;;3.33;1.17;;;;;;;10.47;100.00;99833.97;5001911;28;20291;-73
2023/12/25 00:11:03;;;;;;;3.07;1.20;;;;;;;10.47;100.00;99835.75;5009942;28;20200;-70
2023/12/25 00:13:29;;;;;;;3.10;1.00;;;;;;;10.45;100.00;99851.63;5018030;28;20314;-69
2023/12/25 00:15:56;;;;;;;2.70;0.90;;;;;;;10.46;100.00;99837.50;5033994;28;20231;-67
2023/12/25 00:18:23;;;;;;;4.23;0.90;;;;;;;10.45;100.00;99834.84;5015216;28;20212;-67
2023/12/25 00:20:49;;;;;;;1.37;0.97;;;;;;;10.42;100.00;99826.91;5017957;28;20290;-67
2023/12/25 00:23:16;;;;;;;3.53;1.90;;;;;;;10.39;100.00;99814.50;5009970;28;20250;-68
2023/12/25 00:25:42;;;;;;;4.70;1.00;;;;;;;10.41;100.00;99826.03;5010638;28;20200;-67
2023/12/25 00:28:08;;;;;;;1.63;0.87;;;;;;;10.47;100.00;99812.81;4995304;28;20275;-65
2023/12/25 00:30:35;;;;;;;2.33;0.90;;;;;;;10.44;100.00;99798.66;5007459;28;20223;-67
2023/12/25 00:33:01;;;;;;;1.90;1.00;;;;;;;10.47;100.00;99811.91;5009957;28;20219;-69
2023/12/25 00:35:28;;;;;;;1.93;0.93;;;;;;;10.48;100.00;99811.94;5007805;28;20654;-67
2023/12/25 00:37:54;;;;;;;3.23;1.13;;;;;;;10.48;100.00;99809.28;5009202;28;20297;-68
2023/12/25 00:40:21;;;;;;;3.47;1.13;;;;;;;10.49;100.00;99808.41;5006770;28;20199;-67
2023/12/25 00:42:47;;;;;;;1.83;0.90;;;;;;;10.44;100.00;99804.84;5009226;28;20247;-67
2023/12/25 00:45:14;;;;;;;4.97;1.33;;;;;;;10.51;100.00;99822.53;5008168;28;20709;-71
2023/12/25 00:47:40;;;;;;;3.20;1.13;;;;;;;10.54;100.00;99814.59;5008352;28;20571;-68
2023/12/25 00:50:07;;;;;;;3.50;1.20;;;;;;;10.57;100.00;99816.38;5005435;28;20196;-68
2023/12/25 00:52:34;;;;;;;3.47;1.00;;;;;;;10.57;100.00;99806.66;5008707;28;20597;-67
2023/12/25 00:55:00;;;;;;;1.93;1.00;;;;;;;10.55;100.00;99823.41;5007198;28;20229;-69
2023/12/25 00:57:29;;;;;;;2.10;0.93;;;;;;;10.59;100.00;99811.97;5008505;28;20197;-70
2023/12/25 00:59:55;;;;;;;3.97;1.23;;;;;;;10.61;100.00;99832.28;5009239;28;20869;-66
2023/12/25 01:02:22;;;;;;;4.37;1.50;;;;;;;10.61;100.00;99816.38;5009236;28;20231;-66
2023/12/25 01:04:48;;;;;;;3.93;0.90;;;;;;;10.63;100.00;99827.88;5005863;28;20200;-70
2023/12/25 01:07:15;;;;;;;1.73;1.00;;;;;;;10.63;100.00;99827.88;5009760;28;20226;-67
2023/12/25 01:09:42;;;;;;;3.27;1.60;;;;;;;10.62;100.00;99819.91;5008797;28;20207;-67
2023/12/25 01:12:09;;;;;;;3.83;1.40;;;;;;;10.68;100.00;99822.59;5010173;28;20214;-66
2023/12/25 01:14:36;;;;;;;5.30;1.17;;;;;;;10.67;100.00;99827.00;5001339;28;20228;-67
2023/12/25 01:17:02;;;;;;;3.60;1.10;;;;;;;10.65;100.00;99822.56;5008604;28;20287;-66
2023/12/25 01:19:29;;;;;;;3.00;1.10;;;;;;;10.68;100.00;99827.88;5010035;28;20223;-67
2023/12/25 01:21:56;;;;;;;4.57;1.10;;;;;;;10.68;100.00;99823.47;5010148;28;20282;-67
2023/12/25 01:24:22;;;;;;;3.30;1.17;;;;;;;10.70;100.00;99839.34;5007991;28;20203;-70
2023/12/25 01:26:49;;;;;;;3.10;1.20;;;;;;;10.63;100.00;99835.81;5005532;28;20238;-67
2023/12/25 01:29:15;;;;;;;2.33;1.20;;;;;;;10.67;100.00;99844.66;5009313;28;20205;-66
2023/12/25 01:31:42;;;;;;;3.30;1.17;;;;;;;10.64;100.00;99842.88;5007937;28;20203;-67
2023/12/25 01:34:08;;;;;;;2.93;1.07;;;;;;;10.68;100.00;99835.81;5008465;28;20202;-69
2023/12/25 01:36:35;;;;;;;3.00;1.03;;;;;;;10.69;100.00;99853.47;5004970;28;20233;-69
2023/12/25 01:39:02;;;;;;;3.53;1.40;;;;;;;10.70;100.00;99871.13;5009729;28;20675;-66
2023/12/25 01:41:28;;;;;;;2.77;1.40;;;;;;;10.77;100.00;99874.69;5005682;28;20194;-67
2023/12/25 01:43:55;;;;;;;1.83;0.90;;;;;;;10.76;100.00;99864.97;5007815;28;20420;-66
2023/12/25 01:46:22;;;;;;;1.83;1.30;;;;;;;10.77;100.00;99859.69;5008297;28;20282;-67
2023/12/25 01:48:50;;;;;;;2.20;1.00;;;;;;;10.75;100.00;99863.22;5009079;28;20196;-67
2023/12/25 01:51:21;;;;;;;1.20;0.80;;;;;;;10.73;100.00;99868.50;5007310;28;20502;-67
2023/12/25 01:53:48;;;;;;;2.13;0.97;;;;;;;10.76;100.00;99878.22;5006233;28;20672;-70
2023/12/25 01:56:18;;;;;;;8.20;1.10;;;;;;;10.79;100.00;99878.22;5009686;28;20196;-67
2023/12/25 01:58:44;;;;;;;2.23;0.80;;;;;;;10.75;100.00;99874.69;5008649;28;20640;-66
2023/12/25 02:01:11;;;;;;;2.97;1.00;;;;;;;10.77;100.00;99875.56;5010533;28;20200;-67
2023/12/25 02:03:37;;;;;;;1.67;1.07;;;;;;;10.78;100.00;99868.53;5001059;28;20221;-66
2023/12/25 02:06:05;;;;;;;3.80;0.80;;;;;;;10.77;100.00;99872.03;5024308;28;20572;-68
2023/12/25 02:08:33;;;;;;;1.13;0.80;;;;;;;10.73;100.00;99857.03;5007597;28;20398;-67
2023/12/25 02:11:03;;;;;;;2.00;0.90;;;;;;;10.70;100.00;99863.19;5008128;28;20258;-67
2023/12/25 02:13:30;;;;;;;2.37;0.93;;;;;;;10.72;100.00;99856.13;5003018;28;20209;-68
2023/12/25 02:16:01;;;;;;;3.27;0.90;;;;;;;10.71;100.00;99850.84;5009257;28;20587;-68
2023/12/25 02:18:28;;;;;;;3.03;1.00;;;;;;;10.72;100.00;99860.56;5006239;28;20207;-67
2023/12/25 02:20:55;;;;;;;3.63;1.10;;;;;;;10.68;100.00;99852.59;5008461;28;20192;-67
2023/12/25 02:23:24;;;;;;;4.00;1.17;;;;;;;10.71;100.00;99864.06;5007308;28;20275;-68
2023/12/25 02:25:57;;;;;;;2.23;1.10;;;;;;;10.70;100.00;99860.53;5006786;28;20210;-66
2023/12/25 02:28:24;;;;;;;1.20;0.87;;;;;;;10.74;100.00;99850.84;5000412;28;20207;-68
2023/12/25 02:30:51;;;;;;;1.37;0.70;;;;;;;10.71;100.00;99867.59;5003061;28;20196;-67
2023/12/25 02:33:18;;;;;;;3.77;1.10;;;;;;;10.71;100.00;99872.03;5008528;28;20736;-69
2023/12/25 02:35:45;;;;;;;3.20;1.03;;;;;;;10.71;100.00;99879.97;5004590;28;20285;-67
2023/12/25 02:38:11;;;;;;;4.83;0.83;;;;;;;10.75;100.00;99876.44;5010566;28;20192;-64
2023/12/25 02:40:40;;;;;;;3.90;1.27;;;;;;;10.73;100.00;99870.25;5005681;28;20193;-67
2023/12/25 02:43:07;;;;;;;1.57;0.83;;;;;;;10.68;100.00;99864.94;5006305;28;20220;-67
2023/12/25 02:45:34;;;;;;;1.73;0.90;;;;;;;10.64;100.00;99871.13;5007744;28;20209;-67
2023/12/25 02:48:00;;;;;;;3.63;1.70;;;;;;;10.64;100.00;99881.72;5007918;28;20207;-68
2023/12/25 02:50:27;;;;;;;2.20;1.17;;;;;;;10.67;100.00;99873.78;5007597;28;20204;-67
2023/12/25 02:52:54;;;;;;;3.00;1.17;;;;;;;10.67;100.00;99890.56;5005178;28;20250;-67
2023/12/25 02:55:20;;;;;;;1.50;0.80;;;;;;;10.68;100.00;99889.66;5005369;28;20228;-67
2023/12/25 02:57:48;;;;;;;2.60;0.70;;;;;;;10.70;100.00;99887.03;5007065;28;20586;-70
2023/12/25 03:00:16;;;;;;;2.53;0.87;;;;;;;10.70;100.00;99880.84;5008225;28;20209;-67
2023/12/25 03:02:43;;;;;;;1.97;0.93;;;;;;;10.68;100.00;99900.25;5004661;28;20220;-69
2023/12/25 03:05:09;;;;;;;1.90;1.07;;;;;;;10.66;100.00;99894.06;5009253;28;20529;-67
2023/12/25 03:07:36;;;;;;;2.23;0.90;;;;;;;10.67;100.00;99901.16;5023229;28;20213;-66
2023/12/25 03:10:02;;;;;;;1.20;0.77;;;;;;;10.68;100.00;99902.03;5006722;28;20740;-66
2023/12/25 03:12:29;;;;;;;1.63;0.90;;;;;;;10.70;100.00;99899.38;5008013;28;20213;-67
2023/12/25 03:14:55;;;;;;;2.37;0.93;;;;;;;10.68;100.00;99902.91;5000100;28;20545;-69
2023/12/25 03:17:22;;;;;;;1.17;0.80;;;;;;;10.66;100.00;99895.84;5005612;28;20382;-68
2023/12/25 03:19:48;;;;;;;2.47;0.60;;;;;;;10.70;100.00;99886.16;5006603;28;20230;-67
2023/12/25 03:22:15;;;;;;;1.73;0.90;;;;;;;10.72;100.00;99893.22;5007961;28;20880;-66
2023/12/25 03:24:41;;;;;;;5.10;1.30;;;;;;;10.71;100.00;99885.25;5005165;28;20196;-69
2023/12/25 03:27:08;;;;;;;2.00;0.77;;;;;;;10.70;100.00;99892.31;5011458;28;20202;-67
2023/12/25 03:29:35;;;;;;;2.77;1.03;;;;;;;10.68;100.00;99889.66;5020458;28;20277;-71
2023/12/25 03:32:01;;;;;;;2.07;0.80;;;;;;;10.68;100.00;99894.09;5007048;28;20227;-67
2023/12/25 03:34:28;;;;;;;4.50;0.90;;;;;;;10.70;100.00;99891.44;5008042;28;20208;-67
2023/12/25 03:36:55;;;;;;;1.73;0.90;;;;;;;10.74;100.00;99890.56;5008359;28;20226;-66
2023/12/25 03:39:21;;;;;;;0.93;0.80;;;;;;;10.75;100.00;99892.34;5008915;28;20196;-70
2023/12/25 03:41:48;;;;;;;2.53;0.67;;;;;;;10.75;100.00;99884.41;5010459;28;20238;-67
2023/12/25 03:44:14;;;;;;;0.80;0.60;;;;;;;10.75;100.00;99887.03;5004227;28;20231;-67
2023/12/25 03:46:41;;;;;;;2.23;0.73;;;;;;;10.79;100.00;99892.34;5009184;28;20206;-66
2023/12/25 03:49:07;;;;;;;2.70;0.93;;;;;;;10.80;100.00;99888.84;5012518;28;20208;-66
2023/12/25 03:51:35;;;;;;;1.27;0.80;;;;;;;10.80;100.00;99894.13;5009520;28;20727;-66
2023/12/25 03:54:01;;;;;;;1.93;0.90;;;;;;;10.84;100.00;99893.28;5014535;28;20235;-66
2023/12/25 03:56:27;;;;;;;2.07;0.67;;;;;;;10.84;100.00;99888.00;5016600;28;20203;-67
2023/12/25 03:58:54;;;;;;;2.50;0.70;;;;;;;10.83;100.00;99886.22;5019784;28;20222;-70
2023/12/25 04:01:21;;;;;;;2.60;0.77;;;;;;;10.87;100.00;99903.91;5013144;28;20199;-66
2023/12/25 04:03:47;;;;;;;1.10;0.80;;;;;;;10.87;100.00;99879.19;5009413;28;20233;-67
2023/12/25 04:06:24;;;;;;;1.37;0.77;;;;;;;10.81;100.00;99893.28;5010630;28;20288;-71
2023/12/25 04:08:51;;;;;;;1.30;0.60;;;;;;;10.81;100.00;99885.34;5010708;28;20254;-67
2023/12/25 04:11:21;;;;;;;1.63;0.70;;;;;;;10.84;100.00;99881.81;5008296;28;20206;-67
2023/12/25 04:13:53;;;;;;;5.07;0.80;;;;;;;10.84;100.00;99881.81;5014455;28;20219;-66
2023/12/25 04:16:25;;;;;;;1.07;0.60;;;;;;;10.84;100.00;99885.34;5012266;28;20255;-69
2023/12/25 04:18:52;;;;;;;3.17;0.77;;;;;;;10.87;100.00;99887.13;5010952;28;20206;-70
2023/12/25 04:21:23;;;;;;;1.37;0.80;;;;;;;10.85;100.00;99900.38;5029916;28;20193;-68
2023/12/25 04:23:51;;;;;;;1.80;0.80;;;;;;;10.87;100.00;99900.38;5010635;28;20216;-66
2023/12/25 04:26:19;;;;;;;0.90;0.80;;;;;;;10.85;100.00;99889.78;5008012;28;20228;-69
2023/12/25 04:28:46;;;;;;;2.13;0.80;;;;;;;10.90;100.00;99897.72;5007514;28;20223;-67
2023/12/25 04:31:12;;;;;;;3.07;0.70;;;;;;;10.88;100.00;99886.25;5008313;28;20206;-70
2023/12/25 04:33:39;;;;;;;2.73;0.80;;;;;;;10.87;100.00;99893.31;5010651;28;20794;-67
2023/12/25 04:36:06;;;;;;;1.10;0.70;;;;;;;10.83;100.00;99891.53;5007504;28;20220;-69
2023/12/25 04:38:33;;;;;;;0.63;0.60;;;;;;;10.81;100.00;99889.75;5004717;28;20198;-68
2023/12/25 04:40:59;;;;;;;1.60;0.90;;;;;;;10.84;100.00;99893.28;5011200;28;20676;-66
2023/12/25 04:43:26;;;;;;;3.23;1.10;;;;;;;10.85;100.00;99889.78;5009270;28;20694;-67
2023/12/25 04:45:52;;;;;;;2.00;0.90;;;;;;;10.84;100.00;99885.34;5008630;28;20645;-68
2023/12/25 04:48:19;;;;;;;0.93;0.60;;;;;;;10.86;100.00;99874.75;5012608;28;20283;-72
2023/12/25 04:50:46;;;;;;;2.40;0.63;;;;;;;10.82;100.00;99884.47;5013229;28;20200;-67
2023/12/25 04:53:13;;;;;;;0.60;0.60;;;;;;;10.79;100.00;99889.72;5010982;28;20221;-67
2023/12/25 04:55:40;;;;;;;2.13;1.20;;;;;;;10.73;100.00;99900.28;5008339;28;20288;-68
2023/12/25 04:58:07;;;;;;;2.43;0.77;;;;;;;10.72;100.00;99895.88;5006702;28;20201;-67
2023/12/25 05:00:33;;;;;;;3.57;0.80;;;;;;;10.68;100.00;99894.97;5012418;28;20231;-70
2023/12/25 05:03:00;;;;;;;2.50;0.70;;;;;;;10.64;100.00;99908.19;5004987;28;20217;-68
2023/12/25 05:05:26;;;;;;;1.13;0.60;;;;;;;10.63;100.00;99906.41;5007250;28;20207;-67
2023/12/25 05:07:53;;;;;;;1.40;0.77;;;;;;;10.60;100.00;99904.63;5008813;28;20203;-67
2023/12/25 05:10:20;;;;;;;1.23;0.60;;;;;;;10.59;100.00;99902.00;5011532;28;20202;-73
2023/12/25 05:12:46;;;;;;;1.20;0.60;;;;;;;10.61;100.00;99895.81;5009871;28;20214;-67
2023/12/25 05:15:12;;;;;;;0.97;0.60;;;;;;;10.57;100.00;99909.03;5009266;28;20197;-67
2023/12/25 05:17:39;;;;;;;0.77;0.70;;;;;;;10.55;100.00;99902.84;5004986;28;20204;-67
2023/12/25 05:20:06;;;;;;;0.63;0.50;;;;;;;10.51;100.00;99906.38;5011032;28;20696;-68
2023/12/25 05:22:33;;;;;;;1.13;0.63;;;;;;;10.48;100.00;99903.69;5006660;28;20719;-68
2023/12/25 05:25:00;;;;;;;2.33;0.70;;;;;;;10.55;100.00;99921.38;5008476;28;20576;-67
2023/12/25 05:27:28;;;;;;;1.10;0.70;;;;;;;10.52;100.00;99914.31;5012476;28;20228;-68
2023/12/25 05:29:56;;;;;;;1.27;0.60;;;;;;;10.46;100.00;99916.94;5002635;28;20523;-68
2023/12/25 05:32:22;;;;;;;0.50;0.50;;;;;;;10.47;100.00;99913.41;5016278;28;20709;-67
2023/12/25 05:34:49;;;;;;;0.60;0.57;;;;;;;10.49;100.00;99914.28;5015039;28;20214;-72
2023/12/25 05:37:15;;;;;;;1.60;0.57;;;;;;;10.50;100.00;99912.53;5002559;28;20212;-67
2023/12/25 05:39:42;;;;;;;0.90;0.50;;;;;;;10.48;100.00;99919.59;4998486;28;20228;-68
2023/12/25 05:42:08;;;;;;;0.70;0.50;;;;;;;10.42;100.00;99915.13;5003062;28;20647;-67
2023/12/25 05:44:34;;;;;;;0.50;0.50;;;;;;;10.41;100.00;99929.25;5000000;28;20220;-68
2023/12/25 05:47:01;;;;;;;1.03;0.40;;;;;;;10.43;100.00;99924.84;5000170;28;20700;-67
2023/12/25 05:49:27;;;;;;;2.23;0.43;;;;;;;10.44;100.00;99938.97;4999102;28;20873;-67
2023/12/25 05:51:54;;;;;;;0.60;0.40;;;;;;;10.43;100.00;99938.09;5001555;28;20306;-67
2023/12/25 05:54:20;;;;;;;1.90;0.53;;;;;;;10.42;100.00;99938.97;5000960;28;21200;-70
2023/12/25 05:56:46;;;;;;;0.60;0.40;;;;;;;10.45;100.00;99936.34;4999224;28;20200;-72
2023/12/25 05:59:13;;;;;;;1.50;0.50;;;;;;;10.40;100.00;99935.38;5000246;28;20254;-68
2023/12/25 06:01:40;;;;;;;0.40;0.40;;;;;;;10.41;100.00;99942.50;4997241;28;20208;-67
2023/12/25 06:04:06;;;;;;;1.13;0.50;;;;;;;10.43;100.00;99946.03;5013063;23;20235;-68
2023/12/25 06:06:32;;;;;;;0.53;0.47;;;;;;;10.36;100.00;99950.38;4992121;28;20938;-68
2023/12/25 06:08:59;;;;;;;0.67;0.40;;;;;;;10.40;100.00;99938.03;4993101;28;20537;-68
2023/12/25 06:11:25;;;;;;;0.83;0.50;;;;;;;10.42;100.00;99956.59;4990683;28;20201;-68
2023/12/25 06:13:52;;;;;;;0.47;0.40;;;;;;;10.39;100.00;99953.91;4981697;28;20282;-68
2023/12/25 06:16:18;;;;;;;0.83;0.50;;;;;;;10.30;100.00;99966.22;4981523;28;20921;-68
2023/12/25 06:18:45;;;;;;;3.00;0.50;;;;;;;10.29;100.00;99963.56;4979947;28;20230;-68
2023/12/25 06:21:14;;;;;;;0.67;0.50;;;;;;;10.24;100.00;99979.41;4983941;28;20445;-68
2023/12/25 06:23:40;;;;;;;1.30;0.53;;;;;;;10.21;100.00;99970.56;4980143;28;20234;-68
2023/12/25 06:26:07;;;;;;;0.40;0.40;;;;;;;10.21;100.00;99971.44;4978329;28;20200;-68
2023/12/25 06:28:33;;;;;;;0.40;0.40;;;;;;;10.12;100.00;99981.03;4982422;28;20215;-68
2023/12/25 06:31:00;;;;;;;0.53;0.40;;;;;;;10.04;100.00;99981.84;4981626;28;20611;-68
2023/12/25 06:33:26;;;;;;;2.00;0.50;;;;;;;9.94;100.00;99981.75;4980582;28;20224;-68
2023/12/25 06:35:53;;;;;;;1.27;0.97;;;;;;;9.84;100.00;99988.69;4979765;28;20220;-68
2023/12/25 06:38:19;;;;;;;1.40;0.50;;;;;;;9.79;100.00;99985.13;4979183;28;20937;-67
2023/12/25 06:40:46;;;;;;;1.07;0.53;;;;;;;9.72;100.00;99981.53;4978960;28;20592;-67
2023/12/25 06:43:13;;;;;;;1.33;0.47;;;;;;;9.63;100.00;99986.75;4979833;28;20295;-68
2023/12/25 06:45:39;;;;;;;0.60;0.40;;;;;;;9.59;100.00;99987.56;4981094;28;20199;-67
2023/12/25 06:48:05;;;;;;;1.93;0.60;;;;;;;9.50;100.00;99976.00;4978838;28;20730;-67
2023/12/25 06:50:32;;;;;;;0.73;0.50;;;;;;;9.51;100.00;99976.00;4978906;28;20219;-67
2023/12/25 06:52:59;;;;;;;1.20;0.57;;;;;;;9.47;100.00;99979.50;4976354;28;20234;-68
2023/12/25 06:55:25;;;;;;;0.73;0.40;;;;;;;9.46;100.00;99976.84;4979337;28;20211;-67
2023/12/25 06:57:52;;;;;;;1.80;0.50;;;;;;;9.45;100.00;99983.88;4976861;28;20210;-67
2023/12/25 07:00:19;;;;;;;0.43;0.40;;;;;;;9.48;100.00;99993.59;4980352;28;20233;-67
2023/12/25 07:02:46;;;;;;;0.57;0.40;;;;;;;9.44;100.00;99995.31;4985000;28;20229;-67
2023/12/25 07:05:12;;;;;;;0.57;0.40;;;;;;;9.44;100.00;100000.59;4989107;28;20208;-67
2023/12/25 07:07:42;;;;;;;0.57;0.50;;;;;;;9.40;100.00;100004.09;4985498;28;20209;-68
2023/12/25 07:10:08;;;;;;;1.00;0.50;;;;;;;9.37;100.00;100004.94;4985938;28;20981;-67
2023/12/25 07:12:35;;;;;;;1.13;0.50;;;;;;;9.36;100.00;100005.81;4984827;28;20222;-67
2023/12/25 07:15:01;;;;;;;0.40;0.40;;;;;;;9.38;100.00;100000.53;4987097;28;20548;-68
2023/12/25 07:17:28;;;;;;;0.40;0.40;;;;;;;9.41;100.00;100000.56;4987775;28;20256;-67
2023/12/25 07:19:54;;;;;;;0.67;0.47;;;;;;;9.41;100.00;100001.47;4988714;28;20204;-67
2023/12/25 07:22:20;;;;;;;1.07;0.50;;;;;;;9.41;100.00;100012.03;4988783;28;20223;-67
2023/12/25 07:24:47;;;;;;;0.50;0.50;;;;;;;9.41;100.00;100008.50;4989480;28;20228;-67
2023/12/25 07:27:13;;;;;;;0.40;0.37;;;;;;;9.43;100.00;100009.41;4996528;28;20201;-67
2023/12/25 07:29:39;;;;;;;0.50;0.50;;;;;;;9.39;100.00;100013.78;4997659;28;20204;-67
2023/12/25 07:32:06;;;;;;;0.60;0.40;;;;;;;9.41;100.00;100011.16;4996112;28;20310;-68
2023/12/25 07:34:32;;;;;;;0.87;0.50;;;;;;;9.36;100.00;100019.03;5009837;28;20283;-67
2023/12/25 07:37:00;;;;;;;0.47;0.40;;;;;;;9.38;100.00;100017.28;4983641;28;20293;-67
2023/12/25 07:39:26;;;;;;;0.43;0.40;;;;;;;9.42;100.00;100032.31;4988732;28;20218;-67
2023/12/25 07:41:55;;;;;;;0.60;0.60;;;;;;;9.45;100.00;100035.84;4995395;28;20205;-68
2023/12/25 07:44:22;;;;;;;1.27;0.60;;;;;;;9.45;100.00;100031.47;4991937;28;20227;-68
2023/12/25 07:46:48;;;;;;;0.73;0.50;;;;;;;9.45;100.00;100035.84;4998208;28;20202;-67
2023/12/25 07:49:14;;;;;;;1.43;1.00;;;;;;;9.43;100.00;100027.91;5012636;28;20298;-67
2023/12/25 07:51:41;;;;;;;0.50;0.50;;;;;;;9.39;100.00;100032.28;4992481;28;20208;-67
2023/12/25 07:54:07;;;;;;;2.10;0.47;;;;;;;9.38;100.00;100035.78;4990557;28;20599;-67
2023/12/25 07:56:34;;;;;;;1.10;0.57;;;;;;;9.40;100.00;100039.34;4991488;28;20965;-67
2023/12/25 07:59:01;;;;;;;0.50;0.40;;;;;;;9.35;100.00;100035.75;4990696;28;20303;-67
2023/12/25 08:01:27;;;;;;;1.80;1.20;;;;;;;9.36;100.00;100049.84;4989867;28;20254;-68
2023/12/25 08:03:53;;;;;;;0.93;0.70;;;;;;;9.39;100.00;100040.19;4983018;28;20237;-68
2023/12/25 08:06:20;;;;;;;0.50;0.50;;;;;;;9.43;100.00;100044.66;4991697;28;20713;-68
2023/12/25 08:08:48;;;;;;;0.53;0.43;;;;;;;9.40;100.00;100041.97;4991327;28;20203;-68
2023/12/25 08:11:15;;;;;;;0.60;0.50;;;;;;;9.41;100.00;100038.47;4990434;28;20311;-68
2023/12/25 08:13:41;;;;;;;0.77;0.40;;;;;;;9.45;100.00;100041.13;4990939;28;20238;-67
2023/12/25 08:16:08;;;;;;;0.60;0.43;;;;;;;9.49;100.00;100053.53;4990958;28;20205;-67
2023/12/25 08:18:34;;;;;;;0.67;0.40;;;;;;;9.49;100.00;100053.53;4989592;28;20208;-67
2023/12/25 08:21:01;;;;;;;0.63;0.57;;;;;;;9.50;100.00;100037.69;4989912;28;20281;-68
2023/12/25 08:23:27;;;;;;;2.40;0.40;;;;;;;9.54;100.00;100038.59;4991073;28;20238;-68
2023/12/25 08:25:54;;;;;;;0.40;0.40;;;;;;;9.59;100.00;100040.44;4989591;28;20210;-68
2023/12/25 08:28:20;;;;;;;1.27;0.40;;;;;;;9.60;100.00;100052.78;4990893;28;20282;-68
2023/12/25 08:30:47;;;;;;;0.40;0.40;;;;;;;9.60;100.00;100054.53;4989020;28;20262;-68
2023/12/25 08:33:13;;;;;;;0.73;0.57;;;;;;;9.61;100.00;100065.16;5004511;28;20245;-67
2023/12/25 08:35:40;;;;;;;0.63;0.40;;;;;;;9.62;100.00;100063.41;4988820;28;20270;-68
2023/12/25 08:38:06;;;;;;;0.50;0.50;;;;;;;9.68;100.00;100060.81;4986115;28;20214;-67
2023/12/25 08:40:32;;;;;;;0.30;0.30;;;;;;;9.71;100.00;100067.03;4989475;28;20613;-68
2023/12/25 08:42:59;;;;;;;0.87;0.40;;;;;;;9.68;100.00;100053.78;4990902;28;20246;-68
2023/12/25 08:45:26;;;;;;;0.40;0.40;;;;;;;9.72;100.00;100058.22;4998786;28;20221;-67
2023/12/25 08:47:53;;;;;;;0.30;0.30;;;;;;;9.74;100.00;100060.88;5010279;28;20218;-67
2023/12/25 08:50:20;;;;;;;1.50;0.40;;;;;;;9.76;100.00;100061.78;4994142;28;20581;-68
2023/12/25 08:52:46;;;;;;;0.40;0.40;;;;;;;9.83;100.00;100060.09;4990957;28;20243;-67
2023/12/25 08:55:13;;;;;;;0.40;0.40;;;;;;;9.83;100.00;100062.75;4989355;28;20206;-67
2023/12/25 08:57:39;;;;;;;0.50;0.50;;;;;;;9.88;100.00;100059.28;4990582;28;20234;-67
2023/12/25 09:00:07;;;;;;;1.07;0.50;;;;;;;9.89;100.00;100062.81;4989403;28;20212;-68
2023/12/25 09:02:34;;;;;;;0.77;0.40;;;;;;;9.96;100.00;100059.34;4990529;28;20226;-67
2023/12/25 09:05:00;;;;;;;1.13;0.60;;;;;;;9.92;100.00;100065.47;4988568;28;20235;-67
2023/12/25 09:07:31;;;;;;;0.50;0.50;;;;;;;9.91;100.00;100079.56;4990724;28;20292;-68
2023/12/25 09:09:58;;;;;;;2.00;0.47;;;;;;;9.94;100.00;100064.63;4989657;28;20662;-68
2023/12/25 09:12:24;;;;;;;0.40;0.40;;;;;;;9.93;100.00;100081.38;4989962;28;20223;-67
2023/12/25 09:14:52;;;;;;;1.60;0.40;;;;;;;9.97;100.00;100066.41;4988229;28;20286;-67
2023/12/25 09:17:19;;;;;;;0.87;0.60;;;;;;;10.00;100.00;100077.91;4989577;28;20327;-67
2023/12/25 09:19:47;;;;;;;0.77;0.50;;;;;;;10.04;100.00;100077.09;4990788;28;20209;-67
2023/12/25 09:22:14;;;;;;;0.83;0.43;;;;;;;10.07;100.00;100083.28;4987309;28;20671;-67
2023/12/25 09:24:46;;;;;;;0.70;0.50;;;;;;;10.04;100.00;100073.56;4986486;28;20652;-67
2023/12/25 09:27:13;;;;;;;0.53;0.47;;;;;;;10.07;100.00;100078.88;4989863;28;20205;-67
2023/12/25 09:29:39;;;;;;;0.50;0.50;;;;;;;10.04;100.00;100077.09;4988584;28;20487;-67
2023/12/25 09:32:05;;;;;;;0.37;0.33;;;;;;;10.10;100.00;100083.31;4989990;28;20208;-67
2023/12/25 09:34:32;;;;;;;0.50;0.40;;;;;;;10.11;100.00;100080.69;4988398;28;20559;-67
2023/12/25 09:37:18;;;;;;;0.47;0.30;;;;;;;10.14;100.00;100071.91;4984679;28;20218;-68
2023/12/25 09:39:45;;;;;;;0.30;0.30;;;;;;;10.19;100.00;100084.28;4988956;28;20202;-68
2023/12/25 09:42:11;;;;;;;0.40;0.30;;;;;;;10.21;100.00;100084.34;4983441;28;20202;-68
2023/12/25 09:44:38;;;;;;;0.63;0.40;;;;;;;10.21;100.00;100081.69;4987389;28;20221;-68
2023/12/25 09:47:08;;;;;;;0.50;0.40;;;;;;;10.27;100.00;100079.09;4988139;28;20203;-67
2023/12/25 09:49:38;;;;;;;1.17;0.30;;;;;;;10.28;100.00;100088.81;4988736;28;20334;-68
2023/12/25 09:52:05;;;;;;;0.30;0.30;;;;;;;10.29;100.00;100077.34;4995756;28;20301;-67
2023/12/25 09:54:31;;;;;;;0.37;0.30;;;;;;;10.32;100.00;100065.03;4999354;28;20219;-67
2023/12/25 09:57:00;;;;;;;1.03;0.40;;;;;;;10.33;100.00;100079.16;4995797;28;20196;-68
2023/12/25 09:59:28;;;;;;;0.30;0.30;;;;;;;10.31;100.00;100081.78;4993563;28;20197;-67
2023/12/25 10:01:57;;;;;;;1.17;0.30;;;;;;;10.37;100.00;100070.38;4998916;28;20327;-68
2023/12/25 10:04:27;;;;;;;0.40;0.40;;;;;;;10.44;100.00;100069.56;4995106;28;20221;-67
2023/12/25 10:06:54;;;;;;;0.63;0.60;;;;;;;10.46;100.00;100072.25;4988015;28;20283;-68
2023/12/25 10:09:20;;;;;;;0.67;0.40;;;;;;;10.50;100.00;100071.38;4989157;28;20309;-68
2023/12/25 10:11:47;;;;;;;0.53;0.40;;;;;;;10.53;100.00;100074.06;4988962;28;20295;-68
2023/12/25 10:14:13;;;;;;;0.37;0.37;;;;;;;10.55;100.00;100061.72;4987009;28;20219;-67
2023/12/25 10:16:41;;;;;;;1.23;0.23;;;;;;;10.56;100.00;100071.44;4983764;28;20273;-67
2023/12/25 10:19:07;;;;;;;0.30;0.27;;;;;;;10.56;100.00;100071.44;4987650;28;20292;-67
2023/12/25 10:21:44;;;;;;;0.20;0.20;;;;;;;10.58;100.00;100067.03;4987471;28;20207;-67
2023/12/25 10:24:14;;;;;;;0.30;0.30;;;;;;;10.55;100.00;100065.25;4987125;28;20258;-67
2023/12/25 10:26:45;;;;;;;0.83;0.30;;;;;;;10.60;100.00;100075.88;4986289;28;20244;-68
2023/12/25 10:29:12;;;;;;;0.40;0.30;;;;;;;10.56;100.00;100067.03;4985244;28;20599;-68
2023/12/25 10:31:40;;;;;;;0.40;0.40;;;;;;;10.54;100.00;100063.47;4986576;28;20545;-68
2023/12/25 10:34:06;;;;;;;0.60;0.30;;;;;;;10.54;100.00;100054.66;4983269;28;20299;-67
2023/12/25 10:36:33;;;;;;;0.40;0.40;;;;;;;10.57;100.00;100050.25;4987493;28;20645;-68
2023/12/25 10:39:00;;;;;;;0.50;0.50;;;;;;;10.60;100.00;100050.28;4985273;28;20217;-67
2023/12/25 10:41:31;;;;;;;1.70;0.40;;;;;;;10.64;100.00;100041.47;4983823;28;20204;-67
2023/12/25 10:44:02;;;;;;;0.30;0.30;;;;;;;10.65;100.00;100052.97;4987479;28;20220;-67
2023/12/25 10:46:41;;;;;;;0.37;0.37;;;;;;;10.67;100.00;100060.03;4998063;28;20200;-68
2023/12/25 10:49:09;;;;;;;0.30;0.30;;;;;;;10.70;100.00;100045.03;5005366;28;20243;-67
2023/12/25 10:51:46;;;;;;;0.53;0.40;;;;;;;10.77;100.00;100042.44;4996997;28;20274;-67
2023/12/25 10:54:14;;;;;;;0.40;0.40;;;;;;;10.82;100.00;100037.22;4989793;28;20228;-67
2023/12/25 10:56:43;;;;;;;0.30;0.30;;;;;;;10.81;100.00;100035.44;4994068;28;20209;-68
2023/12/25 10:59:32;;;;;;;0.40;0.40;;;;;;;10.90;100.00;100043.44;4999561;28;20205;-67
2023/12/25 11:02:03;;;;;;;1.80;0.50;;;;;;;10.94;100.00;100029.31;4989874;28;20299;-67
2023/12/25 11:04:30;;;;;;;1.40;0.50;;;;;;;10.99;100.00;100030.25;4990895;28;20222;-68
2023/12/25 11:06:57;;;;;;;0.50;0.50;;;;;;;11.02;100.00;100029.38;4989338;28;20201;-69
2023/12/25 11:09:24;;;;;;;0.60;0.53;;;;;;;11.16;100.00;100025.91;4991382;28;20748;-68
2023/12/25 11:11:51;;;;;;;0.63;0.60;;;;;;;11.28;100.00;100033.06;4995439;28;20202;-68
2023/12/25 11:14:18;;;;;;;0.70;0.60;;;;;;;11.32;100.00;100037.50;4992585;28;20231;-68
2023/12/25 11:16:45;;;;;;;1.97;0.50;;;;;;;11.36;100.00;100039.28;4991137;28;20295;-68
2023/12/25 11:19:11;;;;;;;0.70;0.60;;;;;;;11.40;100.00;100049.00;4989428;28;20209;-67
2023/12/25 11:21:38;;;;;;;0.77;0.60;;;;;;;11.22;100.00;100033.03;4995805;28;20220;-68
2023/12/25 11:24:07;;;;;;;0.50;0.50;;;;;;;11.26;100.00;100022.44;5008967;28;20223;-68